createdAt,value
2018-07-07T00:00:02.454Z,13.56
2018-07-07T00:01:12.635Z,13.64
2018-07-07T00:02:22.832Z,13.54
2018-07-07T00:03:33.065Z,13.55
2018-07-07T00:04:43.302Z,13.59
2018-07-07T00:05:53.530Z,13.59
2018-07-07T00:07:03.733Z,13.63
2018-07-07T00:08:13.994Z,13.55
2018-07-07T00:09:24.182Z,13.58
2018-07-07T00:10:34.311Z,13.59
2018-07-07T00:11:44.478Z,13.56
2018-07-07T00:12:54.649Z,13.54
2018-07-07T00:14:04.763Z,13.51
2018-07-07T00:15:14.891Z,13.37
2018-07-07T00:16:25.020Z,13.48
2018-07-07T00:17:35.180Z,13.34
2018-07-07T00:18:45.042Z,13.34
2018-07-07T00:19:55.232Z,13.31
2018-07-07T00:21:05.389Z,13.31
2018-07-07T00:22:15.663Z,13.3
2018-07-07T00:23:25.898Z,13.27
2018-07-07T00:24:36.115Z,13.23
2018-07-07T00:25:46.346Z,13.16
2018-07-07T00:26:56.546Z,13.16
2018-07-07T00:28:06.885Z,13.15
2018-07-07T00:29:17.031Z,13.12
2018-07-07T00:30:27.260Z,13.09
2018-07-07T00:31:37.437Z,13.09
2018-07-07T00:32:47.660Z,13
2018-07-07T00:33:57.907Z,13.03
2018-07-07T00:35:08.054Z,13.03
2018-07-07T00:36:18.276Z,12.96
2018-07-07T00:37:28.147Z,12.9
2018-07-07T00:38:38.338Z,12.97
2018-07-07T00:39:48.525Z,12.96
2018-07-07T00:40:58.673Z,12.95
2018-07-07T00:42:08.836Z,12.97
2018-07-07T00:43:19.077Z,12.97
2018-07-07T00:44:28.949Z,12.85
2018-07-07T00:45:39.179Z,12.9
2018-07-07T00:46:49.504Z,12.82
2018-07-07T00:47:59.841Z,12.88
2018-07-07T00:49:09.961Z,12.85
2018-07-07T00:50:20.103Z,12.88
2018-07-07T00:51:29.658Z,12.81
2018-07-07T00:52:40.894Z,12.75
2018-07-07T00:53:51.070Z,12.8
2018-07-07T00:55:00.644Z,12.64
2018-07-07T00:56:10.785Z,12.75
2018-07-07T00:57:20.909Z,12.63
2018-07-07T00:58:31.052Z,12.6
2018-07-07T00:59:41.207Z,12.63
2018-07-07T01:00:51.348Z,12.59
2018-07-07T01:02:01.492Z,12.6
2018-07-07T01:03:11.461Z,12.56
2018-07-07T01:04:21.743Z,12.62
2018-07-07T01:05:32.020Z,12.6
2018-07-07T01:06:42.228Z,12.62
2018-07-07T01:07:51.991Z,12.6
2018-07-07T01:09:02.136Z,12.6
2018-07-07T01:10:12.447Z,12.59
2018-07-07T01:11:22.561Z,12.62
2018-07-07T01:12:32.709Z,12.56
2018-07-07T01:13:42.956Z,12.56
2018-07-07T01:14:53.142Z,12.59
2018-07-07T01:16:03.327Z,12.62
2018-07-07T01:17:13.481Z,12.59
2018-07-07T01:18:23.652Z,12.6
2018-07-07T01:19:33.771Z,12.57
2018-07-07T01:20:43.909Z,12.5
2018-07-07T01:21:54.094Z,12.47
2018-07-07T01:23:04.269Z,12.44
2018-07-07T01:24:14.530Z,12.45
2018-07-07T01:25:24.695Z,12.42
2018-07-07T01:26:34.945Z,12.41
2018-07-07T01:27:45.163Z,12.35
2018-07-07T01:28:55.435Z,12.39
2018-07-07T01:30:05.683Z,12.41
2018-07-07T01:31:15.858Z,12.38
2018-07-07T01:32:26.006Z,12.34
2018-07-07T01:33:35.964Z,12.29
2018-07-07T01:34:45.848Z,12.31
2018-07-07T01:35:56.126Z,12.24
2018-07-07T01:37:06.314Z,12.22
2018-07-07T01:38:16.203Z,12.22
2018-07-07T01:39:26.435Z,12.2
2018-07-07T01:40:36.605Z,12.26
2018-07-07T01:41:46.835Z,12.24
2018-07-07T01:42:56.988Z,12.31
2018-07-07T01:44:06.646Z,12.24
2018-07-07T01:45:16.770Z,12.27
2018-07-07T01:46:26.891Z,12.26
2018-07-07T01:47:37.030Z,12.15
2018-07-07T01:48:47.411Z,12.11
2018-07-07T01:49:57.605Z,12.19
2018-07-07T01:51:07.739Z,12.16
2018-07-07T01:52:17.922Z,12.19
2018-07-07T01:53:28.115Z,12.13
2018-07-07T01:54:38.301Z,12.15
2018-07-07T01:55:48.574Z,12.13
2018-07-07T01:56:58.956Z,12.16
2018-07-07T01:58:08.720Z,12.11
2018-07-07T01:59:18.834Z,12.26
2018-07-07T02:00:28.770Z,12.22
2018-07-07T02:01:39.188Z,12.24
2018-07-07T02:02:49.383Z,12.23
2018-07-07T02:03:59.549Z,12.11
2018-07-07T02:05:09.707Z,12.15
2018-07-07T02:06:19.912Z,12.22
2018-07-07T02:07:30.041Z,12.31
2018-07-07T02:08:40.167Z,12.26
2018-07-07T02:09:50.349Z,12.39
2018-07-07T02:11:00.575Z,12.34
2018-07-07T02:12:10.707Z,12.37
2018-07-07T02:13:20.311Z,12.38
2018-07-07T02:14:30.837Z,12.39
2018-07-07T02:15:40.747Z,12.29
2018-07-07T02:16:50.553Z,12.37
2018-07-07T02:18:01.703Z,12.37
2018-07-07T02:19:11.700Z,12.31
2018-07-07T02:20:21.854Z,12.26
2018-07-07T02:21:31.979Z,12.23
2018-07-07T02:22:42.102Z,12.27
2018-07-07T02:23:52.350Z,12.27
2018-07-07T02:25:02.493Z,12.29
2018-07-07T02:26:12.691Z,12.29
2018-07-07T02:27:22.990Z,12.34
2018-07-07T02:28:32.819Z,12.26
2018-07-07T02:29:42.974Z,12.2
2018-07-07T02:30:52.908Z,12.2
2018-07-07T02:32:03.024Z,12.27
2018-07-07T02:33:13.154Z,12.29
2018-07-07T02:34:23.322Z,12.31
2018-07-07T02:35:33.454Z,12.26
2018-07-07T02:36:43.636Z,12.27
2018-07-07T02:37:53.568Z,12.31
2018-07-07T02:39:04.352Z,12.15
2018-07-07T02:40:14.251Z,12.26
2018-07-07T02:41:23.863Z,12.11
2018-07-07T02:42:33.666Z,12.11
2018-07-07T02:43:43.812Z,12.2
2018-07-07T02:44:54.031Z,12.24
2018-07-07T02:46:04.263Z,12.2
2018-07-07T02:47:14.172Z,12.11
2018-07-07T02:48:24.289Z,12.15
2018-07-07T02:49:34.409Z,12.23
2018-07-07T02:50:44.607Z,12.26
2018-07-07T02:51:54.806Z,12.19
2018-07-07T02:53:04.997Z,12.19
2018-07-07T02:54:14.498Z,12.17
2018-07-07T02:55:24.360Z,12.17
2018-07-07T02:56:34.499Z,12.16
2018-07-07T02:57:44.619Z,12.19
2018-07-07T02:58:54.799Z,12.07
2018-07-07T03:00:04.999Z,12.07
2018-07-07T03:01:14.886Z,12.13
2018-07-07T03:02:25.011Z,12.02
2018-07-07T03:03:35.127Z,12.05
2018-07-07T03:04:45.263Z,12.07
2018-07-07T03:05:55.463Z,12.04
2018-07-07T03:07:05.667Z,12.08
2018-07-07T03:08:15.792Z,12.02
2018-07-07T03:09:25.943Z,12.08
2018-07-07T03:10:36.061Z,12.08
2018-07-07T03:11:46.190Z,12.05
2018-07-07T03:12:56.337Z,12.09
2018-07-07T03:14:06.517Z,12.07
2018-07-07T03:15:16.142Z,12.05
2018-07-07T03:16:26.262Z,12.07
2018-07-07T03:17:36.401Z,12.01
2018-07-07T03:18:46.837Z,12.02
2018-07-07T03:19:57.198Z,12.09
2018-07-07T03:21:07.413Z,12.04
2018-07-07T03:22:17.605Z,12.05
2018-07-07T03:23:27.768Z,12.02
2018-07-07T03:24:37.903Z,12.01
2018-07-07T03:25:48.028Z,12.07
2018-07-07T03:26:58.183Z,12.04
2018-07-07T03:28:08.302Z,12.11
2018-07-07T03:29:18.490Z,12.13
2018-07-07T03:30:28.402Z,12.11
2018-07-07T03:31:38.278Z,12.04
2018-07-07T03:32:48.413Z,12.11
2018-07-07T03:33:59.540Z,12.11
2018-07-07T03:35:09.649Z,12.05
2018-07-07T03:36:19.821Z,12.02
2018-07-07T03:37:30.026Z,12.04
2018-07-07T03:38:40.530Z,12.08
2018-07-07T03:39:50.652Z,12.07
2018-07-07T03:41:00.793Z,12.09
2018-07-07T03:42:11.035Z,12.08
2018-07-07T03:43:21.351Z,12.11
2018-07-07T03:44:31.473Z,12.09
2018-07-07T03:45:41.630Z,12.02
2018-07-07T03:46:51.814Z,12.09
2018-07-07T03:48:02.245Z,12.11
2018-07-07T03:49:12.423Z,12.09
2018-07-07T03:50:22.653Z,12.04
2018-07-07T03:51:32.522Z,12.07
2018-07-07T03:52:42.960Z,12.16
2018-07-07T03:53:53.071Z,12.16
2018-07-07T03:55:03.242Z,12.19
2018-07-07T03:56:13.582Z,12.17
2018-07-07T03:57:23.794Z,12.07
2018-07-07T03:58:34.135Z,12.15
2018-07-07T03:59:44.020Z,12.15
2018-07-07T04:00:54.389Z,12.22
2018-07-07T04:02:04.716Z,12.2
2018-07-07T04:03:14.974Z,12.23
2018-07-07T04:04:25.107Z,12.23
2018-07-07T04:05:35.243Z,12.11
2018-07-07T04:06:45.603Z,12.2
2018-07-07T04:07:55.765Z,12.27
2018-07-07T04:09:05.905Z,12.29
2018-07-07T04:10:16.039Z,12.35
2018-07-07T04:11:26.194Z,12.41
2018-07-07T04:12:36.441Z,12.38
2018-07-07T04:13:46.209Z,12.45
2018-07-07T04:14:56.353Z,12.42
2018-07-07T04:16:06.477Z,12.52
2018-07-07T04:17:16.618Z,12.42
2018-07-07T04:18:26.831Z,12.55
2018-07-07T04:19:36.647Z,12.55
2018-07-07T04:20:46.776Z,12.55
2018-07-07T04:21:56.916Z,12.57
2018-07-07T04:23:06.914Z,12.66
2018-07-07T04:24:17.071Z,12.62
2018-07-07T04:25:26.966Z,12.62
2018-07-07T04:26:37.311Z,12.62
2018-07-07T04:27:47.466Z,12.63
2018-07-07T04:28:57.623Z,12.56
2018-07-07T04:30:07.401Z,12.59
2018-07-07T04:31:17.343Z,12.63
2018-07-07T04:32:27.240Z,12.66
2018-07-07T04:33:37.260Z,12.68
2018-07-07T04:34:47.560Z,12.77
2018-07-07T04:35:57.728Z,12.71
2018-07-07T04:37:07.603Z,12.8
2018-07-07T04:38:17.782Z,12.82
2018-07-07T04:39:27.903Z,12.85
2018-07-07T04:40:38.403Z,12.84
2018-07-07T04:41:48.530Z,12.85
2018-07-07T04:42:58.670Z,12.82
2018-07-07T04:44:08.797Z,12.9
2018-07-07T04:45:18.959Z,12.93
2018-07-07T04:46:28.817Z,12.85
2018-07-07T04:47:38.737Z,12.97
2018-07-07T04:48:48.911Z,13.06
2018-07-07T04:49:59.057Z,13.09
2018-07-07T04:51:08.909Z,13.12
2018-07-07T04:52:19.093Z,13.16
2018-07-07T04:53:29.251Z,13.27
2018-07-07T04:54:39.444Z,13.26
2018-07-07T04:55:49.234Z,13.34
2018-07-07T04:56:59.350Z,13.33
2018-07-07T04:58:09.540Z,13.38
2018-07-07T04:59:19.741Z,13.37
2018-07-07T05:00:29.739Z,13.31
2018-07-07T05:01:39.629Z,13.36
2018-07-07T05:02:49.898Z,13.45
2018-07-07T05:04:01.004Z,13.41
2018-07-07T05:05:11.256Z,13.46
2018-07-07T05:06:21.446Z,13.51
2018-07-07T05:07:31.693Z,13.52
2018-07-07T05:08:42.007Z,13.55
2018-07-07T05:09:52.138Z,13.59
2018-07-07T05:11:02.284Z,13.73
2018-07-07T05:12:12.424Z,13.79
2018-07-07T05:13:22.587Z,13.84
2018-07-07T05:14:32.735Z,13.85
2018-07-07T05:15:42.910Z,13.91
2018-07-07T05:16:53.148Z,14.03
2018-07-07T05:18:03.596Z,14
2018-07-07T05:19:13.716Z,14.14
2018-07-07T05:20:23.861Z,14.09
2018-07-07T05:21:33.991Z,14.18
2018-07-07T05:22:44.123Z,14.24
2018-07-07T05:23:54.271Z,14.31
2018-07-07T05:25:04.407Z,14.4
2018-07-07T05:26:14.278Z,14.4
2018-07-07T05:27:24.405Z,14.47
2018-07-07T05:28:34.598Z,14.45
2018-07-07T05:29:44.744Z,14.5
2018-07-07T05:30:54.883Z,14.51
2018-07-07T05:32:05.122Z,14.43
2018-07-07T05:33:15.410Z,14.39
2018-07-07T05:34:25.563Z,14.39
2018-07-07T05:35:35.814Z,14.43
2018-07-07T05:36:45.687Z,14.26
2018-07-07T05:37:55.885Z,14.25
2018-07-07T05:39:06.010Z,14.25
2018-07-07T05:40:16.143Z,14.21
2018-07-07T05:41:26.293Z,14.24
2018-07-07T05:42:36.078Z,14.24
2018-07-07T05:43:45.971Z,14.25
2018-07-07T05:44:56.094Z,14.37
2018-07-07T05:46:06.233Z,14.48
2018-07-07T05:47:16.357Z,14.36
2018-07-07T05:48:26.516Z,14.36
2018-07-07T05:49:36.631Z,14.36
2018-07-07T05:50:46.757Z,14.31
2018-07-07T05:51:56.879Z,14.44
2018-07-07T05:53:06.757Z,14.48
2018-07-07T05:54:16.886Z,14.58
2018-07-07T05:55:26.754Z,14.6
2018-07-07T05:56:36.519Z,14.52
2018-07-07T05:57:46.677Z,14.58
2018-07-07T05:58:56.808Z,14.51
2018-07-07T06:00:06.936Z,14.51
2018-07-07T06:01:17.142Z,14.58
2018-07-07T06:02:27.275Z,14.5
2018-07-07T06:03:37.646Z,14.51
2018-07-07T06:04:47.794Z,14.51
2018-07-07T06:05:57.937Z,14.56
2018-07-07T06:07:08.187Z,14.56
2018-07-07T06:08:18.392Z,14.36
2018-07-07T06:09:28.545Z,14.43
2018-07-07T06:10:38.747Z,14.4
2018-07-07T06:11:48.907Z,14.36
2018-07-07T06:12:59.055Z,14.44
2018-07-07T06:14:09.205Z,14.62
2018-07-07T06:15:19.341Z,14.58
2018-07-07T06:16:29.582Z,14.67
2018-07-07T06:17:39.724Z,14.7
2018-07-07T06:18:50.028Z,14.69
2018-07-07T06:19:59.954Z,14.69
2018-07-07T06:21:10.073Z,14.77
2018-07-07T06:22:20.309Z,14.78
2018-07-07T06:23:30.470Z,14.81
2018-07-07T06:24:40.602Z,14.8
2018-07-07T06:25:50.468Z,14.85
2018-07-07T06:27:00.671Z,14.91
2018-07-07T06:28:10.909Z,14.85
2018-07-07T06:29:21.084Z,14.83
2018-07-07T06:30:30.859Z,14.8
2018-07-07T06:31:41.003Z,14.85
2018-07-07T06:32:50.939Z,14.96
2018-07-07T06:34:01.053Z,14.96
2018-07-07T06:35:11.210Z,15.05
2018-07-07T06:36:21.426Z,15.15
2018-07-07T06:37:31.706Z,15.06
2018-07-07T06:38:41.599Z,15.06
2018-07-07T06:39:51.720Z,15.09
2018-07-07T06:41:01.651Z,15.05
2018-07-07T06:42:11.922Z,15.08
2018-07-07T06:43:22.119Z,15.03
2018-07-07T06:44:32.275Z,14.96
2018-07-07T06:45:42.229Z,14.93
2018-07-07T06:46:52.425Z,15.03
2018-07-07T06:48:02.355Z,15.03
2018-07-07T06:49:12.310Z,15.03
2018-07-07T06:50:22.478Z,15.09
2018-07-07T06:51:32.598Z,15.06
2018-07-07T06:52:42.951Z,15.24
2018-07-07T06:53:53.013Z,15.21
2018-07-07T06:55:03.654Z,15.24
2018-07-07T06:56:13.793Z,15.23
2018-07-07T06:57:23.928Z,15.2
2018-07-07T06:58:34.338Z,15.27
2018-07-07T06:59:44.656Z,15.21
2018-07-07T07:00:55.019Z,15.25
2018-07-07T07:02:05.237Z,15.3
2018-07-07T07:03:15.132Z,15.25
2018-07-07T07:04:25.335Z,15.36
2018-07-07T07:05:36.503Z,15.42
2018-07-07T07:06:47.614Z,15.5
2018-07-07T07:07:57.841Z,15.45
2018-07-07T07:09:07.748Z,15.46
2018-07-07T07:10:18.873Z,15.46
2018-07-07T07:11:28.786Z,15.46
2018-07-07T07:12:38.919Z,15.46
2018-07-07T07:13:49.075Z,15.48
2018-07-07T07:14:58.943Z,15.48
2018-07-07T07:16:09.071Z,15.46
2018-07-07T07:17:19.306Z,15.54
2018-07-07T07:18:29.445Z,15.55
2018-07-07T07:19:39.379Z,15.57
2018-07-07T07:20:49.252Z,15.55
2018-07-07T07:21:59.481Z,15.55
2018-07-07T07:23:09.760Z,15.58
2018-07-07T07:24:19.948Z,15.57
2018-07-07T07:25:30.212Z,15.63
2018-07-07T07:26:40.369Z,15.69
2018-07-07T07:27:50.575Z,15.66
2018-07-07T07:29:00.708Z,15.68
2018-07-07T07:30:10.338Z,15.69
2018-07-07T07:31:21.485Z,15.69
2018-07-07T07:32:31.360Z,15.8
2018-07-07T07:33:41.529Z,15.84
2018-07-07T07:34:51.485Z,15.91
2018-07-07T07:36:01.694Z,15.91
2018-07-07T07:37:11.989Z,16.01
2018-07-07T07:38:22.154Z,16.04
2018-07-07T07:39:32.407Z,16.14
2018-07-07T07:40:42.545Z,16.16
2018-07-07T07:41:52.938Z,16.21
2018-07-07T07:43:03.178Z,16.16
2018-07-07T07:44:13.400Z,16.16
2018-07-07T07:45:23.540Z,16.21
2018-07-07T07:46:33.461Z,16.24
2018-07-07T07:47:43.336Z,16.17
2018-07-07T07:48:53.552Z,16.17
2018-07-07T07:50:03.842Z,16.2
2018-07-07T07:51:14.077Z,16.2
2018-07-07T07:52:24.223Z,16.19
2018-07-07T07:53:34.370Z,16.11
2018-07-07T07:54:44.484Z,16.25
2018-07-07T07:55:54.668Z,16.21
2018-07-07T07:57:04.564Z,16.34
2018-07-07T07:58:14.716Z,16.35
2018-07-07T07:59:24.864Z,16.32
2018-07-07T08:00:35.019Z,16.42
2018-07-07T08:01:45.152Z,16.43
2018-07-07T08:02:55.091Z,16.49
2018-07-07T08:04:05.084Z,16.54
2018-07-07T08:05:15.281Z,16.57
2018-07-07T08:06:25.526Z,16.57
2018-07-07T08:07:35.826Z,16.62
2018-07-07T08:08:45.706Z,16.69
2018-07-07T08:09:55.826Z,16.69
2018-07-07T08:11:05.955Z,16.71
2018-07-07T08:12:16.165Z,16.82
2018-07-07T08:13:26.334Z,16.87
2018-07-07T08:14:36.177Z,16.94
2018-07-07T08:15:46.339Z,16.86
2018-07-07T08:16:56.264Z,16.84
2018-07-07T08:18:06.433Z,16.86
2018-07-07T08:19:16.562Z,16.84
2018-07-07T08:20:26.753Z,16.91
2018-07-07T08:21:36.894Z,16.91
2018-07-07T08:22:47.158Z,16.96
2018-07-07T08:23:57.480Z,17.06
2018-07-07T08:25:07.393Z,17.12
2018-07-07T08:26:17.335Z,17.16
2018-07-07T08:27:27.543Z,17.23
2018-07-07T08:28:37.818Z,17.39
2018-07-07T08:29:48.059Z,17.5
2018-07-07T08:30:58.249Z,17.61
2018-07-07T08:32:08.437Z,17.64
2018-07-07T08:33:18.329Z,17.72
2018-07-07T08:34:28.718Z,17.75
2018-07-07T08:35:39.179Z,17.82
2018-07-07T08:36:49.480Z,17.98
2018-07-07T08:38:00.632Z,18.05
2018-07-07T08:39:10.864Z,18.1
2018-07-07T08:40:21.024Z,18.09
2018-07-07T08:41:31.294Z,18.23
2018-07-07T08:42:41.177Z,18.38
2018-07-07T08:43:50.988Z,18.37
2018-07-07T08:45:01.116Z,18.53
2018-07-07T08:46:11.003Z,18.6
2018-07-07T08:47:21.202Z,18.71
2018-07-07T08:48:31.339Z,18.9
2018-07-07T08:49:41.488Z,19.06
2018-07-07T08:50:51.911Z,19.13
2018-07-07T08:52:02.051Z,19.3
2018-07-07T08:53:13.180Z,19.33
2018-07-07T08:54:23.317Z,19.53
2018-07-07T08:55:33.456Z,19.56
2018-07-07T08:56:43.625Z,19.73
2018-07-07T08:57:53.850Z,19.98
2018-07-07T08:59:04.031Z,20.21
2018-07-07T09:00:14.321Z,20.64
2018-07-07T09:01:24.519Z,21.18
2018-07-07T09:02:34.673Z,21.88
2018-07-07T09:03:44.855Z,22.45
2018-07-07T09:04:55.025Z,23.02
2018-07-07T09:06:05.228Z,23.39
2018-07-07T09:07:15.390Z,23.53
2018-07-07T09:08:25.556Z,23.79
2018-07-07T09:09:35.764Z,24
2018-07-07T09:10:45.952Z,24.13
2018-07-07T09:11:56.159Z,24.19
2018-07-07T09:13:06.338Z,24.57
2018-07-07T09:14:16.622Z,24.69
2018-07-07T09:15:26.979Z,24.76
2018-07-07T09:16:37.128Z,24.78
2018-07-07T09:17:48.140Z,24.82
2018-07-07T09:18:58.390Z,25.03
2018-07-07T09:20:08.271Z,25.18
2018-07-07T09:21:18.584Z,25.4
2018-07-07T09:22:29.014Z,25.68
2018-07-07T09:23:39.320Z,25.66
2018-07-07T09:24:49.484Z,25.58
2018-07-07T09:25:59.752Z,25.65
2018-07-07T09:27:09.647Z,25.5
2018-07-07T09:28:19.810Z,25.34
2018-07-07T09:29:29.956Z,25.52
2018-07-07T09:30:40.121Z,25.66
2018-07-07T09:31:50.292Z,25.69
2018-07-07T09:33:00.509Z,25.71
2018-07-07T09:34:10.410Z,25.81
2018-07-07T09:35:20.305Z,25.97
2018-07-07T09:36:30.473Z,26.27
2018-07-07T09:37:40.657Z,26.4
2018-07-07T09:38:51.010Z,26.55
2018-07-07T09:40:01.602Z,26.61
2018-07-07T09:41:11.631Z,26.73
2018-07-07T09:42:21.863Z,26.9
2018-07-07T09:43:32.097Z,26.78
2018-07-07T09:44:42.243Z,26.61
2018-07-07T09:45:52.402Z,26.39
2018-07-07T09:47:02.625Z,26.46
2018-07-07T09:48:12.522Z,26.55
2018-07-07T09:49:22.928Z,26.67
2018-07-07T09:50:33.104Z,26.59
2018-07-07T09:51:43.211Z,26.52
2018-07-07T09:52:53.364Z,26.3
2018-07-07T09:54:03.539Z,26.25
2018-07-07T09:55:13.760Z,26.24
2018-07-07T09:56:24.321Z,26.33
2018-07-07T09:57:34.707Z,26.45
2018-07-07T09:58:44.902Z,26.66
2018-07-07T09:59:55.089Z,26.86
2018-07-07T10:01:09.441Z,26.93
2018-07-07T10:02:19.624Z,26.95
2018-07-07T10:03:29.795Z,26.93
2018-07-07T10:04:39.967Z,26.88
2018-07-07T10:05:50.221Z,26.67
2018-07-07T10:07:00.445Z,26.43
2018-07-07T10:08:10.840Z,26.4
2018-07-07T10:09:20.995Z,26.29
2018-07-07T10:10:31.189Z,26.29
2018-07-07T10:11:40.819Z,26.31
2018-07-07T10:12:51.208Z,26.29
2018-07-07T10:14:01.369Z,26.31
2018-07-07T10:15:11.527Z,26.4
2018-07-07T10:16:21.697Z,26.61
2018-07-07T10:17:31.963Z,26.68
2018-07-07T10:18:42.124Z,26.59
2018-07-07T10:19:52.305Z,26.61
2018-07-07T10:21:03.518Z,26.7
2018-07-07T10:22:13.303Z,26.68
2018-07-07T10:23:23.509Z,26.73
2018-07-07T10:24:33.735Z,26.59
2018-07-07T10:25:43.971Z,26.55
2018-07-07T10:26:54.233Z,26.7
2018-07-07T10:28:04.147Z,26.82
2018-07-07T10:29:14.302Z,26.88
2018-07-07T10:30:24.212Z,26.88
2018-07-07T10:31:34.628Z,26.85
2018-07-07T10:32:44.944Z,26.96
2018-07-07T10:33:55.297Z,27.01
2018-07-07T10:35:04.936Z,26.98
2018-07-07T10:36:15.115Z,27.07
2018-07-07T10:37:25.336Z,27.23
2018-07-07T10:38:35.921Z,27.34
2018-07-07T10:39:46.108Z,27.27
2018-07-07T10:40:56.282Z,27.43
2018-07-07T10:42:06.617Z,27.48
2018-07-07T10:43:16.993Z,27.26
2018-07-07T10:44:27.879Z,27.34
2018-07-07T10:45:38.108Z,27.41
2018-07-07T10:46:48.733Z,27.26
2018-07-07T10:47:58.960Z,27.2
2018-07-07T10:49:09.138Z,27.3
2018-07-07T10:50:19.347Z,27.31
2018-07-07T10:51:29.718Z,27.41
2018-07-07T10:52:40.127Z,27.42
2018-07-07T10:53:50.290Z,27.42
2018-07-07T10:55:00.503Z,27.46
2018-07-07T10:56:10.681Z,27.45
2018-07-07T10:57:20.913Z,27.45
2018-07-07T10:58:31.271Z,27.35
2018-07-07T10:59:41.450Z,27.26
2018-07-07T11:00:52.625Z,27.14
2018-07-07T11:02:02.805Z,27.07
2018-07-07T11:03:13.015Z,27.03
2018-07-07T11:04:23.719Z,26.95
2018-07-07T11:05:33.938Z,26.86
2018-07-07T11:06:44.138Z,26.83
2018-07-07T11:07:54.394Z,26.9
2018-07-07T11:09:04.694Z,26.93
2018-07-07T11:10:14.866Z,26.93
2018-07-07T11:11:26.029Z,26.95
2018-07-07T11:12:36.289Z,26.95
2018-07-07T11:13:46.239Z,26.88
2018-07-07T11:14:56.424Z,26.93
2018-07-07T11:16:06.585Z,26.78
2018-07-07T11:17:17.089Z,26.71
2018-07-07T11:18:27.291Z,26.67
2018-07-07T11:19:37.457Z,26.64
2018-07-07T11:20:47.389Z,26.64
2018-07-07T11:21:57.589Z,26.62
2018-07-07T11:23:07.797Z,26.55
2018-07-07T11:24:18.008Z,26.62
2018-07-07T11:25:28.369Z,26.59
2018-07-07T11:26:38.547Z,26.61
2018-07-07T11:27:48.701Z,26.61
2018-07-07T11:28:58.877Z,26.52
2018-07-07T11:30:09.105Z,26.53
2018-07-07T11:31:19.418Z,26.58
2018-07-07T11:32:29.572Z,26.73
2018-07-07T11:33:39.462Z,26.75
2018-07-07T11:34:49.664Z,26.75
2018-07-07T11:35:59.824Z,26.85
2018-07-07T11:37:09.740Z,26.83
2018-07-07T11:38:19.895Z,26.74
2018-07-07T11:39:29.698Z,26.78
2018-07-07T11:40:39.869Z,26.7
2018-07-07T11:41:49.517Z,26.68
2018-07-07T11:42:59.750Z,26.7
2018-07-07T11:44:09.922Z,26.82
2018-07-07T11:45:20.310Z,26.88
2018-07-07T11:46:30.214Z,26.96
2018-07-07T11:47:40.581Z,26.98
2018-07-07T11:48:51.007Z,26.93
2018-07-07T11:50:01.180Z,27.01
2018-07-07T11:51:11.513Z,27.05
2018-07-07T11:52:21.677Z,27.07
2018-07-07T11:53:32.931Z,27.14
2018-07-07T11:54:43.259Z,27.33
2018-07-07T11:55:53.410Z,27.37
2018-07-07T11:57:03.365Z,27.41
2018-07-07T11:58:13.588Z,27.28
2018-07-07T11:59:23.773Z,27.46
2018-07-07T12:00:33.951Z,27.7
2018-07-07T12:01:44.169Z,27.8
2018-07-07T12:02:54.409Z,27.7
2018-07-07T12:04:04.678Z,27.71
2018-07-07T12:05:14.840Z,27.67
2018-07-07T12:06:25.023Z,27.67
2018-07-07T12:07:35.418Z,27.67
2018-07-07T12:08:45.620Z,27.63
2018-07-07T12:09:55.818Z,27.46
2018-07-07T12:11:06.977Z,27.31
2018-07-07T12:12:17.195Z,27.31
2018-07-07T12:13:27.555Z,27.34
2018-07-07T12:14:37.756Z,27.33
2018-07-07T12:15:47.970Z,27.35
2018-07-07T12:16:58.138Z,27.15
2018-07-07T12:18:08.330Z,27.07
2018-07-07T12:19:18.544Z,26.98
2018-07-07T12:20:28.734Z,26.95
2018-07-07T12:21:38.941Z,26.92
2018-07-07T12:22:49.096Z,26.88
2018-07-07T12:23:59.404Z,26.88
2018-07-07T12:25:09.581Z,26.92
2018-07-07T12:26:19.766Z,26.89
2018-07-07T12:27:30.064Z,26.85
2018-07-07T12:28:40.830Z,26.95
2018-07-07T12:29:50.995Z,26.92
2018-07-07T12:31:01.161Z,26.59
2018-07-07T12:32:11.333Z,26.46
2018-07-07T12:33:21.586Z,26.36
2018-07-07T12:34:31.182Z,26.29
2018-07-07T12:35:41.365Z,26.04
2018-07-07T12:36:51.707Z,26.02
2018-07-07T12:38:01.934Z,26.03
2018-07-07T12:39:12.224Z,25.96
2018-07-07T12:40:23.448Z,25.96
2018-07-07T12:41:33.757Z,25.69
2018-07-07T12:42:43.655Z,25.61
2018-07-07T12:43:53.600Z,25.65
2018-07-07T12:45:03.760Z,25.71
2018-07-07T12:46:13.931Z,25.59
2018-07-07T12:47:24.133Z,25.66
2018-07-07T12:48:34.419Z,25.66
2018-07-07T12:49:45.658Z,25.71
2018-07-07T12:50:55.859Z,25.62
2018-07-07T12:52:06.421Z,25.64
2018-07-07T12:53:16.619Z,25.5
2018-07-07T12:54:26.510Z,25.34
2018-07-07T12:55:36.716Z,25.39
2018-07-07T12:56:46.938Z,25.29
2018-07-07T12:57:56.774Z,25.21
2018-07-07T12:59:06.944Z,25.19
2018-07-07T13:00:17.220Z,25.21
2018-07-07T13:01:27.504Z,25.15
2018-07-07T13:02:37.687Z,25.15
2018-07-07T13:03:47.918Z,25.1
2018-07-07T13:04:58.137Z,25.06
2018-07-07T13:06:08.393Z,25.07
2018-07-07T13:07:18.563Z,25.06
2018-07-07T13:08:28.851Z,25.09
2018-07-07T13:09:39.035Z,25.19
2018-07-07T13:10:49.226Z,25.13
2018-07-07T13:11:59.430Z,25.19
2018-07-07T13:13:09.632Z,25.17
2018-07-07T13:14:19.872Z,25.15
2018-07-07T13:15:30.178Z,25.12
2018-07-07T13:16:40.348Z,25.07
2018-07-07T13:17:51.509Z,25.03
2018-07-07T13:19:01.931Z,25.02
2018-07-07T13:20:12.121Z,24.94
2018-07-07T13:21:22.281Z,24.94
2018-07-07T13:22:32.473Z,25.02
2018-07-07T13:23:42.844Z,24.85
2018-07-07T13:24:53.235Z,24.88
2018-07-07T13:26:03.471Z,24.92
2018-07-07T13:27:13.650Z,24.94
2018-07-07T13:28:23.467Z,24.9
2018-07-07T13:29:33.858Z,24.87
2018-07-07T13:30:44.026Z,24.8
2018-07-07T13:31:53.960Z,24.76
2018-07-07T13:33:04.224Z,24.7
2018-07-07T13:34:14.737Z,24.65
2018-07-07T13:35:24.890Z,24.63
2018-07-07T13:36:35.135Z,24.54
2018-07-07T13:37:45.327Z,24.45
2018-07-07T13:38:55.694Z,24.48
2018-07-07T13:40:05.869Z,24.32
2018-07-07T13:41:16.064Z,24.38
2018-07-07T13:42:27.212Z,24.27
2018-07-07T13:43:37.440Z,24.31
2018-07-07T13:44:47.609Z,24.31
2018-07-07T13:45:57.886Z,24.38
2018-07-07T13:47:08.081Z,24.34
2018-07-07T13:48:18.269Z,24.38
2018-07-07T13:49:28.730Z,24.31
2018-07-07T13:50:39.051Z,24.31
2018-07-07T13:51:49.232Z,24.34
2018-07-07T13:52:59.723Z,24.39
2018-07-07T13:54:10.013Z,24.32
2018-07-07T13:55:20.282Z,24.34
2018-07-07T13:56:30.509Z,24.34
2018-07-07T13:57:40.678Z,24.32
2018-07-07T13:58:50.467Z,24.4
2018-07-07T14:00:00.637Z,24.32
2018-07-07T14:01:10.820Z,24.5
2018-07-07T14:02:21.206Z,24.32
2018-07-07T14:03:32.496Z,24.34
2018-07-07T14:04:42.793Z,24.35
2018-07-07T14:05:53.069Z,24.25
2018-07-07T14:07:03.260Z,24.24
2018-07-07T14:08:13.634Z,24.17
2018-07-07T14:09:23.857Z,24.19
2018-07-07T14:10:34.085Z,24.1
2018-07-07T14:11:44.265Z,24.15
2018-07-07T14:12:54.425Z,24.19
2018-07-07T14:14:04.965Z,24.28
2018-07-07T14:15:15.288Z,24.28
2018-07-07T14:16:25.489Z,24.25
2018-07-07T14:17:36.064Z,24.15
2018-07-07T14:18:46.283Z,24.2
2018-07-07T14:19:56.472Z,24.13
2018-07-07T14:21:06.657Z,24.15
2018-07-07T14:22:16.847Z,24.2
2018-07-07T14:23:26.733Z,24.15
2018-07-07T14:24:37.073Z,24.16
2018-07-07T14:25:47.284Z,24.31
2018-07-07T14:26:57.559Z,24.29
2018-07-07T14:28:07.771Z,24.22
2018-07-07T14:29:17.943Z,24.2
2018-07-07T14:30:28.262Z,24.25
2018-07-07T14:31:38.481Z,24.24
2018-07-07T14:32:48.728Z,24.2
2018-07-07T14:33:58.992Z,24.28
2018-07-07T14:35:09.176Z,24.16
2018-07-07T14:36:19.351Z,24.16
2018-07-07T14:37:29.532Z,24.12
2018-07-07T14:38:39.172Z,24.22
2018-07-07T14:39:49.590Z,24.24
2018-07-07T14:40:59.773Z,24.09
2018-07-07T14:42:09.992Z,24.17
2018-07-07T14:43:20.181Z,24.1
2018-07-07T14:44:30.329Z,24.09
2018-07-07T14:45:40.536Z,24.07
2018-07-07T14:46:50.816Z,24.02
2018-07-07T14:48:01.042Z,23.94
2018-07-07T14:49:11.198Z,23.92
2018-07-07T14:50:21.454Z,24
2018-07-07T14:51:31.691Z,23.88
2018-07-07T14:52:41.602Z,23.88
2018-07-07T14:53:51.755Z,23.91
2018-07-07T14:55:01.932Z,23.91
2018-07-07T14:56:12.130Z,23.91
2018-07-07T14:57:22.382Z,23.9
2018-07-07T14:58:32.771Z,23.97
2018-07-07T14:59:42.952Z,23.95
2018-07-07T15:00:53.448Z,23.9
2018-07-07T15:02:03.255Z,23.88
2018-07-07T15:03:13.514Z,23.91
2018-07-07T15:04:23.658Z,23.88
2018-07-07T15:05:34.996Z,23.88
2018-07-07T15:06:45.468Z,23.91